createdAt,value
2022-09-17T00:00:41.598Z,95377.97
2022-09-17T00:05:44.586Z,95379.53
2022-09-17T00:10:46.716Z,95367.31
2022-09-17T00:15:49.007Z,95351.66
2022-09-17T00:20:51.559Z,95350.09
2022-09-17T00:25:53.729Z,95344.53
2022-09-17T00:30:56.128Z,95354.56
2022-09-17T00:36:02.473Z,95356.72
2022-09-17T00:41:05.388Z,95333.63
2022-09-17T00:46:31.798Z,95339.63
2022-09-17T00:51:42.351Z,95340.88
2022-09-17T00:56:44.958Z,95329.34
2022-09-17T01:01:47.141Z,95339.19
2022-09-17T01:07:08.021Z,95334.09
2022-09-17T01:12:51.245Z,95337.22
2022-09-17T01:18:19.323Z,95328.50
2022-09-17T01:23:58.298Z,95332.59
2022-09-17T01:29:09.852Z,95306.81
2022-09-17T01:34:32.143Z,95306.00
2022-09-17T01:39:34.714Z,95314.59
2022-09-17T01:44:52.618Z,95297.59
2022-09-17T01:50:02.880Z,95286.81
2022-09-17T01:55:10.047Z,95275.66
2022-09-17T02:00:15.986Z,95280.66
2022-09-17T02:05:42.481Z,95275.03
2022-09-17T02:10:48.408Z,95279.44
2022-09-17T02:15:57.770Z,95261.75
2022-09-17T02:21:10.884Z,95273.81
2022-09-17T02:26:18.813Z,95271.34
2022-09-17T02:31:21.335Z,95275.09
2022-09-17T02:36:24.955Z,95272.84
2022-09-17T02:41:36.753Z,95269.16
2022-09-17T02:46:57.964Z,95287.47
2022-09-17T02:52:06.208Z,95279.03
2022-09-17T02:57:16.823Z,95265.28
2022-09-17T03:02:25.747Z,95238.22
2022-09-17T03:07:29.415Z,95210.50
2022-09-17T03:12:32.146Z,95225.41
2022-09-17T03:17:35.472Z,95199.78
2022-09-17T03:22:37.677Z,95202.25
2022-09-17T03:27:39.820Z,95200.22
2022-09-17T03:32:41.961Z,95209.78
2022-09-17T03:37:44.051Z,95186.09
2022-09-17T03:42:46.317Z,95174.59
2022-09-17T03:47:48.776Z,95183.72
2022-09-17T03:52:51.029Z,95152.06
2022-09-17T03:57:53.135Z,95187.59
2022-09-17T04:02:55.217Z,95179.28
2022-09-17T04:07:57.705Z,95146.09
2022-09-17T04:12:59.970Z,95140.19
2022-09-17T04:18:02.088Z,95153.53
2022-09-17T04:23:04.401Z,95133.22
2022-09-17T04:28:07.410Z,95132.72
2022-09-17T04:33:10.191Z,95141.00
2022-09-17T04:38:13.998Z,95154.72
2022-09-17T04:43:16.159Z,95145.16
2022-09-17T04:48:18.350Z,95145.72
2022-09-17T04:53:20.538Z,95162.53
2022-09-17T04:58:22.656Z,95159.09
2022-09-17T05:03:24.910Z,95157.91
2022-09-17T05:08:26.975Z,95160.84
2022-09-17T05:13:29.149Z,95141.50
2022-09-17T05:18:31.751Z,95149.00
2022-09-17T05:23:47.702Z,95154.78
2022-09-17T05:28:49.908Z,95117.34
2022-09-17T05:33:52.241Z,95102.34
2022-09-17T05:38:54.464Z,95106.38
2022-09-17T05:43:56.650Z,95111.09
2022-09-17T05:48:58.872Z,95120.50
2022-09-17T05:54:02.522Z,95087.22
2022-09-17T05:59:04.845Z,95071.16
2022-09-17T06:04:08.228Z,95046.88
2022-09-17T06:15:21.995Z,95029.25
2022-09-17T06:20:24.025Z,95048.56
2022-09-17T06:25:26.810Z,95090.19
2022-09-17T06:30:29.119Z,95069.78
2022-09-17T06:35:31.158Z,95078.84
2022-09-17T06:40:33.337Z,95052.91
2022-09-17T06:45:35.461Z,95071.47
2022-09-17T06:50:42.493Z,95058.13
2022-09-17T06:55:45.492Z,95066.19
2022-09-17T07:00:47.983Z,95094.50
2022-09-17T07:06:13.002Z,95116.84
2022-09-17T07:11:24.960Z,95119.97
2022-09-17T07:16:30.539Z,95114.53
2022-09-17T07:21:38.631Z,95102.06
2022-09-17T07:26:43.141Z,95104.22
2022-09-17T07:31:46.406Z,95115.84
2022-09-17T07:36:49.213Z,95146.75
2022-09-17T07:41:55.496Z,95126.97
2022-09-17T07:47:04.963Z,95105.34
2022-09-17T07:52:07.517Z,95100.72
2022-09-17T07:57:09.856Z,95084.53
2022-09-17T08:02:24.417Z,95097.78
2022-09-17T08:07:30.187Z,95065.97
2022-09-17T08:12:32.447Z,95074.34
2022-09-17T08:17:38.388Z,95108.69
2022-09-17T08:22:41.212Z,95055.22
2022-09-17T08:27:51.437Z,95100.00
2022-09-17T08:32:57.140Z,95085.38
2022-09-17T08:38:02.228Z,95112.94
2022-09-17T08:43:07.702Z,95088.41
2022-09-17T08:48:14.971Z,95111.81
2022-09-17T08:53:32.399Z,95084.53
2022-09-17T08:58:41.252Z,95075.00
2022-09-17T09:04:20.794Z,95060.94
2022-09-17T09:09:28.379Z,95045.72
2022-09-17T09:14:44.467Z,95052.41
2022-09-17T09:19:50.262Z,95042.25
2022-09-17T09:25:24.865Z,95031.59
2022-09-17T09:30:53.959Z,95029.97
2022-09-17T09:35:56.314Z,95022.00
2022-09-17T09:41:19.618Z,94991.16
2022-09-17T09:46:52.336Z,95015.50
2022-09-17T09:52:00.787Z,95003.44
2022-09-17T09:57:32.397Z,94980.59
2022-09-17T10:02:34.923Z,94990.41
2022-09-17T10:07:45.273Z,94991.81
2022-09-17T10:12:47.585Z,95005.94
2022-09-17T10:17:49.668Z,94984.69
2022-09-17T10:22:51.932Z,94987.84
2022-09-17T10:27:54.501Z,94986.75
2022-09-17T10:33:44.320Z,94999.88
2022-09-17T10:38:47.508Z,94972.00
2022-09-17T10:43:50.799Z,94975.78
2022-09-17T10:49:08.389Z,95007.56
2022-09-17T10:54:13.679Z,95008.31
2022-09-17T10:59:25.171Z,95028.91
2022-09-17T11:04:49.395Z,95050.09
2022-09-17T11:10:13.238Z,95069.53
2022-09-17T11:15:21.517Z,95052.75
2022-09-17T11:20:42.546Z,95102.47
2022-09-17T11:25:56.105Z,95082.47
2022-09-17T11:31:24.383Z,95109.69
2022-09-17T11:36:33.482Z,95085.31
2022-09-17T11:41:44.207Z,95146.72
2022-09-17T11:53:57.345Z,95319.81
2022-09-17T11:59:06.434Z,95365.84
2022-09-17T12:04:28.139Z,95381.13
2022-09-17T12:10:22.343Z,95408.25
2022-09-17T12:15:35.691Z,95288.69
2022-09-17T12:20:42.430Z,95251.25
2022-09-17T12:26:10.768Z,95254.03
2022-09-17T12:31:34.429Z,95216.50
2022-09-17T12:37:00.405Z,95218.72
2022-09-17T12:42:21.817Z,95201.72
2022-09-17T12:47:42.577Z,95155.72
2022-09-17T12:53:14.518Z,95118.69
2022-09-17T12:58:38.885Z,95111.50
2022-09-17T13:03:55.310Z,95058.09
2022-09-17T13:09:28.811Z,95025.16
2022-09-17T13:15:08.116Z,95052.09
2022-09-17T13:20:22.447Z,95016.13
2022-09-17T13:25:27.377Z,94983.97
2022-09-17T13:30:59.915Z,95014.41
2022-09-17T13:36:03.961Z,94974.25
2022-09-17T13:41:22.018Z,94992.91
2022-09-17T13:46:29.399Z,95019.59
2022-09-17T13:51:32.354Z,95003.81
2022-09-17T13:56:39.299Z,95009.84
2022-09-17T14:02:05.000Z,95001.34
2022-09-17T14:07:24.049Z,95009.22
2022-09-17T14:12:41.691Z,95008.38
2022-09-17T14:17:52.302Z,94956.13
2022-09-17T14:23:00.154Z,95001.28
2022-09-17T14:28:26.741Z,94965.28
2022-09-17T14:33:32.326Z,94958.56
2022-09-17T14:38:38.789Z,94982.72
2022-09-17T14:43:57.666Z,94970.84
2022-09-17T14:49:21.247Z,94993.69
2022-09-17T14:54:32.355Z,94980.38
2022-09-17T14:59:37.492Z,94987.72
2022-09-17T15:04:43.930Z,94971.28
2022-09-17T15:09:46.076Z,94970.13
2022-09-17T15:14:48.637Z,94973.91
2022-09-17T15:19:55.069Z,94950.44
2022-09-17T15:25:03.854Z,94940.56
2022-09-17T15:30:10.322Z,94934.63
2022-09-17T15:35:15.892Z,94954.13
2022-09-17T15:40:34.984Z,94958.59
2022-09-17T15:45:39.390Z,94916.72
2022-09-17T15:50:55.978Z,94946.84
2022-09-17T15:56:08.730Z,94912.75
2022-09-17T16:01:17.669Z,94934.53
2022-09-17T16:06:24.987Z,94929.34
2022-09-17T16:11:30.431Z,94896.31
2022-09-17T16:16:36.011Z,94911.56
2022-09-17T16:21:38.623Z,94857.34
2022-09-17T16:26:42.070Z,94870.47
2022-09-17T16:31:49.465Z,94890.88
2022-09-17T16:37:20.049Z,94941.84
2022-09-17T16:42:26.485Z,94945.13
2022-09-17T16:47:39.598Z,94975.78
2022-09-17T16:52:56.255Z,95025.63
2022-09-17T16:57:59.288Z,95048.44
2022-09-17T17:03:01.805Z,94994.66
2022-09-17T17:08:06.740Z,95011.09
2022-09-17T17:13:09.102Z,95002.28
2022-09-17T17:18:11.462Z,95019.13
2022-09-17T17:23:13.900Z,95034.34
2022-09-17T17:28:20.592Z,95029.06
2022-09-17T17:33:22.815Z,95026.41
2022-09-17T17:38:25.058Z,94999.25
2022-09-17T17:43:32.357Z,94975.09
2022-09-17T17:48:35.757Z,94984.34
2022-09-17T17:53:41.951Z,94980.88
2022-09-17T17:58:44.607Z,94975.50
2022-09-17T18:03:47.577Z,94980.34
2022-09-17T18:08:49.733Z,95000.09
2022-09-17T18:13:54.290Z,95049.91
2022-09-17T18:18:59.285Z,95055.66
2022-09-17T18:24:03.568Z,95033.25
2022-09-17T18:29:08.268Z,94999.06
2022-09-17T18:34:16.137Z,95013.19
2022-09-17T18:44:41.472Z,95008.50
2022-09-17T18:49:44.617Z,94926.59
2022-09-17T18:55:05.560Z,94914.66
2022-09-17T19:00:12.932Z,94923.28
2022-09-17T19:05:17.383Z,94902.69
2022-09-17T19:10:23.327Z,94919.81
2022-09-17T19:15:27.620Z,94909.47
2022-09-17T19:20:40.232Z,94889.66
2022-09-17T19:25:50.272Z,94865.84
2022-09-17T19:30:56.007Z,94896.91
2022-09-17T19:36:08.902Z,94818.97
2022-09-17T19:41:16.201Z,94893.19
2022-09-17T19:46:23.498Z,94838.53
2022-09-17T19:51:30.818Z,94808.88
2022-09-17T20:01:53.650Z,94761.31
2022-09-17T20:07:06.798Z,94791.59
2022-09-17T20:12:10.216Z,94806.84
2022-09-17T20:17:41.990Z,94819.53
2022-09-17T20:22:44.217Z,94799.38
2022-09-17T20:27:46.325Z,94835.06
2022-09-17T20:32:48.826Z,94835.88
2022-09-17T20:43:13.385Z,94834.56
2022-09-17T20:48:15.506Z,94839.50
2022-09-17T20:53:17.794Z,94836.88
2022-09-17T20:58:20.407Z,94825.31
2022-09-17T21:03:23.185Z,94828.75
2022-09-17T21:08:25.454Z,94808.38
2022-09-17T21:13:27.492Z,94792.41
2022-09-17T21:18:30.181Z,94835.13
2022-09-17T21:23:35.567Z,94821.66
2022-09-17T21:28:38.634Z,94823.53
2022-09-17T21:33:41.893Z,94805.00
2022-09-17T21:38:44.595Z,94815.81
2022-09-17T21:43:47.312Z,94814.84
2022-09-17T21:48:54.318Z,94806.59
2022-09-17T21:54:02.136Z,94812.50
2022-09-17T21:59:07.046Z,94818.44
2022-09-17T22:04:15.098Z,94818.00
2022-09-17T22:09:20.838Z,94820.47
2022-09-17T22:14:24.642Z,94813.69
2022-09-17T22:19:27.010Z,94810.06
2022-09-17T22:24:29.282Z,94797.69
2022-09-17T22:29:33.869Z,94801.13
2022-09-17T22:34:36.047Z,94799.78
2022-09-17T22:39:38.532Z,94814.78
2022-09-17T22:44:42.206Z,94834.28
2022-09-17T22:49:44.605Z,94821.16
2022-09-17T22:54:46.705Z,94830.41
2022-09-17T22:59:48.760Z,94802.69
2022-09-17T23:04:51.015Z,94817.22
2022-09-17T23:09:53.270Z,94798.06
2022-09-17T23:14:55.476Z,94788.63
2022-09-17T23:19:58.130Z,94745.69
2022-09-17T23:25:00.164Z,94764.19
2022-09-17T23:30:02.469Z,94778.94
2022-09-17T23:35:04.946Z,94773.06
2022-09-17T23:40:08.442Z,94792.09
2022-09-17T23:45:10.882Z,94794.06
2022-09-17T23:50:13.575Z,94788.53
2022-09-17T23:55:15.729Z,94765.34
